createdAt,value
2018-08-24T00:00:32.678Z,31.37
2018-08-24T00:03:35.890Z,30.60
2018-08-24T00:06:41.520Z,31.77
2018-08-24T00:09:44.740Z,32.07
2018-08-24T00:12:48.710Z,33.93
2018-08-24T00:15:51.981Z,34.33
2018-08-24T00:18:55.276Z,33.10
2018-08-24T00:21:58.463Z,33.57
2018-08-24T00:25:01.679Z,36.23
2018-08-24T00:28:04.927Z,40.77
2018-08-24T00:31:08.225Z,39.17
2018-08-24T00:34:11.424Z,40.67
2018-08-24T00:37:14.614Z,37.80
2018-08-24T00:40:17.815Z,37.17
2018-08-24T00:43:21.208Z,37.27
2018-08-24T00:46:25.169Z,37.20
2018-08-24T00:49:28.424Z,36.93
2018-08-24T00:52:31.629Z,36.70
2018-08-24T00:55:35.705Z,37.00
2018-08-24T00:58:39.381Z,37.77
2018-08-24T01:01:42.544Z,37.87
2018-08-24T01:04:45.709Z,36.60
2018-08-24T01:07:54.194Z,36.10
2018-08-24T01:10:57.417Z,37.30
2018-08-24T01:14:00.643Z,38.00
2018-08-24T01:17:09.166Z,39.40
2018-08-24T01:20:12.349Z,39.90
2018-08-24T01:23:15.560Z,38.60
2018-08-24T01:26:23.793Z,38.63
2018-08-24T01:29:27.011Z,40.77
2018-08-24T01:32:30.224Z,37.33
2018-08-24T01:35:34.098Z,39.03
2018-08-24T01:38:37.266Z,39.17
2018-08-24T01:41:40.453Z,45.57
2018-08-24T01:44:43.631Z,48.23
2018-08-24T01:47:46.830Z,44.13
2018-08-24T01:50:50.015Z,46.60
2018-08-24T01:53:53.282Z,45.80
2018-08-24T01:56:56.508Z,43.03
2018-08-24T01:59:59.686Z,41.00
2018-08-24T02:03:02.826Z,38.97
2018-08-24T02:06:07.143Z,39.50
2018-08-24T02:09:11.654Z,38.70
2018-08-24T02:12:20.195Z,38.17
2018-08-24T02:15:23.470Z,37.60
2018-08-24T02:18:31.898Z,35.10
2018-08-24T02:21:40.344Z,35.13
2018-08-24T02:24:43.534Z,32.67
2018-08-24T02:27:46.738Z,32.30
2018-08-24T02:30:50.569Z,31.57
2018-08-24T02:33:53.712Z,30.93
2018-08-24T02:36:57.117Z,30.87
2018-08-24T02:40:00.319Z,32.53
2018-08-24T02:43:04.447Z,29.37
2018-08-24T02:46:07.708Z,28.90
2018-08-24T02:49:11.926Z,29.97
2018-08-24T02:52:15.211Z,24.37
2018-08-24T02:55:18.859Z,23.67
2018-08-24T02:58:22.151Z,24.43
2018-08-24T03:01:25.370Z,22.93
2018-08-24T03:04:28.571Z,20.17
2018-08-24T03:07:31.752Z,22.03
2018-08-24T03:10:34.923Z,20.20
2018-08-24T03:13:38.117Z,21.73
2018-08-24T03:16:45.465Z,22.17
2018-08-24T03:19:48.599Z,22.73
2018-08-24T03:22:51.812Z,22.43
2018-08-24T03:25:54.969Z,21.70
2018-08-24T03:28:58.290Z,22.97
2018-08-24T03:32:07.380Z,22.30
2018-08-24T03:35:10.521Z,25.67
2018-08-24T03:38:13.728Z,24.20
2018-08-24T03:41:16.934Z,21.13
2018-08-24T03:44:20.102Z,24.13
2018-08-24T03:47:24.549Z,23.27
2018-08-24T03:50:27.812Z,24.97
2018-08-24T03:53:30.978Z,25.93
2018-08-24T03:56:34.134Z,27.07
2018-08-24T03:59:37.422Z,28.07
2018-08-24T04:02:40.568Z,25.97
2018-08-24T04:05:43.866Z,26.53
2018-08-24T04:08:47.076Z,27.63
2018-08-24T04:11:50.340Z,27.37
2018-08-24T04:14:53.502Z,27.03
2018-08-24T04:17:56.732Z,27.27
2018-08-24T04:21:00.492Z,28.43
2018-08-24T04:24:03.795Z,27.87
2018-08-24T04:27:07.134Z,28.70
2018-08-24T04:30:11.486Z,28.63
2018-08-24T04:33:15.334Z,28.53
2018-08-24T04:36:18.585Z,27.67
2018-08-24T04:39:21.833Z,27.50
2018-08-24T04:42:25.061Z,27.27
2018-08-24T04:45:28.322Z,27.13
2018-08-24T04:48:31.507Z,24.73
2018-08-24T04:51:34.821Z,24.00
2018-08-24T04:54:38.209Z,23.90
2018-08-24T04:57:41.411Z,21.70
2018-08-24T05:00:44.806Z,20.83
2018-08-24T05:03:48.056Z,22.40
2018-08-24T05:06:51.303Z,22.87
2018-08-24T05:09:54.601Z,23.70
2018-08-24T05:12:57.837Z,22.37
2018-08-24T05:16:01.482Z,22.53
2018-08-24T05:19:04.704Z,23.00
2018-08-24T05:22:07.987Z,20.47
2018-08-24T05:25:11.214Z,20.87
2018-08-24T05:28:15.040Z,22.37
2018-08-24T05:31:18.120Z,22.17
2018-08-24T05:34:21.414Z,21.53
2018-08-24T05:37:24.752Z,21.07
2018-08-24T05:40:28.016Z,20.87
2018-08-24T05:43:31.377Z,21.20
2018-08-24T05:46:34.817Z,21.63
2018-08-24T05:49:38.770Z,22.53
2018-08-24T05:52:42.069Z,21.97
2018-08-24T05:55:45.497Z,21.93
2018-08-24T05:58:49.030Z,21.43
2018-08-24T06:01:52.275Z,23.03
2018-08-24T06:04:55.915Z,22.20
2018-08-24T06:07:59.176Z,22.73
2018-08-24T06:11:03.035Z,23.90
2018-08-24T06:14:06.325Z,23.17
2018-08-24T06:17:14.842Z,22.20
2018-08-24T06:20:18.514Z,20.77
2018-08-24T06:23:21.767Z,21.43
2018-08-24T06:26:25.000Z,23.53
2018-08-24T06:29:28.318Z,23.27
2018-08-24T06:32:31.554Z,22.00
2018-08-24T06:35:34.842Z,23.23
2018-08-24T06:38:38.083Z,23.50
2018-08-24T06:41:42.127Z,23.53
2018-08-24T06:44:59.955Z,21.83
2018-08-24T06:48:03.290Z,23.13
2018-08-24T06:51:06.813Z,23.77
2018-08-24T06:54:10.022Z,23.97
2018-08-24T06:57:13.360Z,23.43
2018-08-24T07:00:20.738Z,24.03
2018-08-24T07:03:23.974Z,24.00
2018-08-24T07:06:27.198Z,23.40
2018-08-24T07:09:30.473Z,21.47
2018-08-24T07:12:33.791Z,23.47
2018-08-24T07:15:37.023Z,22.70
2018-08-24T07:18:41.617Z,21.27
2018-08-24T07:21:45.118Z,21.40
2018-08-24T07:24:48.748Z,20.10
2018-08-24T07:27:52.039Z,20.40
2018-08-24T07:30:55.404Z,19.00
2018-08-24T07:33:58.845Z,19.47
2018-08-24T07:37:02.089Z,17.83
2018-08-24T07:40:05.321Z,15.33
2018-08-24T07:43:08.614Z,14.87
2018-08-24T07:46:11.871Z,14.33
2018-08-24T07:49:15.992Z,13.27
2018-08-24T07:52:21.156Z,10.27
2018-08-24T07:55:25.821Z,10.17
2018-08-24T07:58:29.909Z,9.80
2018-08-24T08:01:33.101Z,9.33
2018-08-24T08:04:36.392Z,10.03
2018-08-24T08:07:43.437Z,9.73
2018-08-24T08:10:48.685Z,9.80
2018-08-24T08:13:58.128Z,10.53
2018-08-24T08:17:02.784Z,10.23
2018-08-24T08:20:08.098Z,10.07
2018-08-24T08:23:34.149Z,10.60
2018-08-24T08:26:59.078Z,10.67
2018-08-24T08:30:04.722Z,9.70
2018-08-24T08:33:09.282Z,9.37
2018-08-24T08:36:13.559Z,10.80
2018-08-24T08:39:16.931Z,10.73
2018-08-24T08:46:28.069Z,11.77
2018-08-24T08:49:36.664Z,12.03
2018-08-24T08:52:43.806Z,12.33
2018-08-24T08:55:51.894Z,12.40
2018-08-24T08:59:05.369Z,13.00
2018-08-24T09:02:39.144Z,13.70
2018-08-24T09:05:54.013Z,11.80
2018-08-24T09:21:16.645Z,11.40
2018-08-24T09:24:25.269Z,10.57
2018-08-24T09:28:32.164Z,10.93
2018-08-24T09:31:37.852Z,10.07
2018-08-24T09:34:41.289Z,9.00
2018-08-24T09:37:45.842Z,7.53
2018-08-24T09:40:56.210Z,6.17
2018-08-24T09:44:00.626Z,6.30
2018-08-24T09:47:09.766Z,5.33
2018-08-24T09:50:18.436Z,4.90
2018-08-24T09:53:27.100Z,4.63
2018-08-24T09:56:31.479Z,5.07
2018-08-24T09:59:35.596Z,4.10
2018-08-24T10:02:42.840Z,4.33
2018-08-24T10:07:54.204Z,4.37
2018-08-24T10:10:57.641Z,3.80
2018-08-24T10:14:00.858Z,3.67
2018-08-24T10:17:04.364Z,4.00
2018-08-24T10:20:07.735Z,3.40
2018-08-24T10:23:11.547Z,3.63
2018-08-24T10:26:14.952Z,6.50
2018-08-24T10:29:18.332Z,5.07
2018-08-24T10:32:21.635Z,3.50
2018-08-24T10:35:25.567Z,3.80
2018-08-24T10:38:29.314Z,3.90
2018-08-24T10:41:32.639Z,13.00
2018-08-24T10:44:36.391Z,5.10
2018-08-24T10:47:39.681Z,5.03
2018-08-24T10:50:43.606Z,5.03
2018-08-24T10:53:47.055Z,5.10
2018-08-24T10:56:50.429Z,4.33
2018-08-24T10:59:53.729Z,4.80
2018-08-24T11:02:57.085Z,5.60
2018-08-24T11:06:00.627Z,6.83
2018-08-24T11:09:05.218Z,5.53
2018-08-24T11:12:08.509Z,5.70
2018-08-24T11:15:11.736Z,5.40
2018-08-24T11:18:15.973Z,4.57
2018-08-24T11:21:19.354Z,4.90
2018-08-24T11:24:22.639Z,4.60
2018-08-24T11:27:26.085Z,4.47
2018-08-24T11:30:29.592Z,4.40
2018-08-24T11:33:33.049Z,4.60
2018-08-24T11:36:36.286Z,4.40
2018-08-24T11:39:40.190Z,4.50
2018-08-24T11:42:43.640Z,4.00
2018-08-24T11:45:46.981Z,3.50
2018-08-24T11:48:50.384Z,3.83
2018-08-24T11:51:53.764Z,3.80
2018-08-24T11:54:58.148Z,3.60
2018-08-24T11:58:01.496Z,3.40
2018-08-24T12:01:04.751Z,3.60
2018-08-24T12:04:08.559Z,3.53
2018-08-24T12:07:11.971Z,4.00
2018-08-24T12:10:15.296Z,4.27
2018-08-24T12:13:19.002Z,4.40
2018-08-24T12:16:22.348Z,9.07
2018-08-24T12:19:25.656Z,3.87
2018-08-24T12:22:28.976Z,4.43
2018-08-24T12:25:32.533Z,4.30
2018-08-24T12:28:35.788Z,5.07
2018-08-24T12:31:39.222Z,4.43
2018-08-24T12:34:42.776Z,4.43
2018-08-24T12:37:47.559Z,5.23
2018-08-24T12:40:51.033Z,4.27
2018-08-24T12:43:54.354Z,4.87
2018-08-24T12:46:58.597Z,5.00
2018-08-24T12:50:04.574Z,6.10
2018-08-24T12:53:08.067Z,5.83
2018-08-24T12:56:16.627Z,6.80
2018-08-24T12:59:20.036Z,6.50
2018-08-24T13:02:23.379Z,5.93
2018-08-24T13:05:26.785Z,6.17
2018-08-24T13:08:30.134Z,5.77
2018-08-24T13:11:33.603Z,6.53
2018-08-24T13:14:36.942Z,6.33
2018-08-24T13:17:40.207Z,7.13
2018-08-24T13:20:43.568Z,7.23
2018-08-24T13:23:46.874Z,7.00
2018-08-24T13:26:50.316Z,7.27
2018-08-24T13:29:53.610Z,6.73
2018-08-24T13:32:56.999Z,6.53
2018-08-24T13:36:00.271Z,6.73
2018-08-24T13:39:04.625Z,7.53
2018-08-24T13:42:07.981Z,7.93
2018-08-24T13:45:11.388Z,7.03
2018-08-24T13:48:14.859Z,6.83
2018-08-24T13:51:18.199Z,7.70
2018-08-24T13:54:21.545Z,7.63
2018-08-24T13:57:24.925Z,6.87
2018-08-24T14:00:28.449Z,6.57
2018-08-24T14:03:31.784Z,7.57
2018-08-24T14:06:35.031Z,7.20
2018-08-24T14:09:38.481Z,7.57
2018-08-24T14:12:41.733Z,7.20
2018-08-24T14:15:45.108Z,6.97
2018-08-24T14:18:48.379Z,7.43
2018-08-24T14:21:51.771Z,7.70
2018-08-24T14:24:55.124Z,7.33
2018-08-24T14:27:58.565Z,7.10
2018-08-24T14:31:02.111Z,7.27
2018-08-24T14:34:05.497Z,6.97
2018-08-24T14:37:09.055Z,7.27
2018-08-24T14:40:12.385Z,7.07
2018-08-24T14:43:15.678Z,8.17
2018-08-24T14:46:19.190Z,8.13
2018-08-24T14:49:22.623Z,8.07
2018-08-24T14:52:26.318Z,7.60
2018-08-24T14:55:29.797Z,7.30
2018-08-24T14:58:33.450Z,8.10
2018-08-24T15:01:36.837Z,7.53
2018-08-24T15:04:40.290Z,7.73
2018-08-24T15:07:43.776Z,7.47
2018-08-24T15:10:47.101Z,7.53
2018-08-24T15:13:50.552Z,7.50
2018-08-24T15:16:53.916Z,8.10
2018-08-24T15:19:57.344Z,7.03
2018-08-24T15:23:00.911Z,7.07
2018-08-24T15:26:04.559Z,7.20
2018-08-24T15:29:08.003Z,7.07
2018-08-24T15:32:11.502Z,7.27
2018-08-24T15:35:15.227Z,7.30
2018-08-24T15:38:19.687Z,7.30
2018-08-24T15:41:23.214Z,7.00
2018-08-24T15:44:27.643Z,6.63
2018-08-24T15:47:31.207Z,7.10
2018-08-24T15:50:35.279Z,6.93
2018-08-24T15:53:38.958Z,7.13
2018-08-24T15:56:42.361Z,7.13
2018-08-24T16:00:02.369Z,7.37
2018-08-24T16:03:05.996Z,7.00
2018-08-24T16:06:10.329Z,7.30
2018-08-24T16:09:14.377Z,6.33
2018-08-24T16:12:17.860Z,6.97
2018-08-24T16:15:21.465Z,7.00
2018-08-24T16:18:25.489Z,7.30
2018-08-24T16:21:28.861Z,7.40
2018-08-24T16:24:32.440Z,6.67
2018-08-24T16:27:36.906Z,7.60
2018-08-24T16:30:40.388Z,7.33
2018-08-24T16:33:43.860Z,7.57
2018-08-24T16:36:48.202Z,7.03
2018-08-24T16:39:51.740Z,7.23
2018-08-24T16:42:55.259Z,6.60
2018-08-24T16:45:58.645Z,6.60
2018-08-24T16:49:02.606Z,7.20
2018-08-24T16:52:06.241Z,7.20
2018-08-24T16:55:09.552Z,6.53
2018-08-24T16:58:13.091Z,6.97
2018-08-24T17:01:16.984Z,7.00
2018-08-24T17:04:20.454Z,8.73
2018-08-24T17:07:23.837Z,7.27
2018-08-24T17:10:27.573Z,7.40
2018-08-24T17:13:31.240Z,10.33
2018-08-24T17:16:35.579Z,7.07
2018-08-24T17:19:39.151Z,13.30
2018-08-24T17:22:42.861Z,7.83
2018-08-24T17:25:46.806Z,7.83
2018-08-24T17:28:50.445Z,17.97
2018-08-24T17:31:53.933Z,9.30
2018-08-24T17:34:57.600Z,6.10
2018-08-24T17:38:01.014Z,18.60
2018-08-24T17:41:04.736Z,6.67
2018-08-24T17:44:08.351Z,7.07
2018-08-24T17:47:11.821Z,5.77
2018-08-24T17:50:15.393Z,8.13
2018-08-24T17:53:18.886Z,8.20
2018-08-24T17:56:22.487Z,5.47
2018-08-24T17:59:26.030Z,5.67
2018-08-24T18:02:29.763Z,6.50
2018-08-24T18:05:33.446Z,6.80
2018-08-24T18:08:37.061Z,12.77
2018-08-24T18:11:41.389Z,6.47
2018-08-24T18:14:45.067Z,5.47
2018-08-24T18:17:48.965Z,7.63
2018-08-24T18:20:53.644Z,5.20
2018-08-24T18:23:57.247Z,4.87
2018-08-24T18:27:00.978Z,4.93
2018-08-24T18:30:04.744Z,4.70
2018-08-24T18:33:08.621Z,4.80
2018-08-24T18:36:12.243Z,4.77
2018-08-24T18:39:15.946Z,4.43
2018-08-24T18:42:20.253Z,4.73
2018-08-24T18:45:24.024Z,8.20
2018-08-24T18:48:27.839Z,5.40
2018-08-24T18:51:32.046Z,4.60
2018-08-24T18:54:35.638Z,4.97
2018-08-24T18:57:39.651Z,4.87
2018-08-24T19:00:43.968Z,5.33
2018-08-24T19:03:47.873Z,5.30
2018-08-24T19:06:52.114Z,4.60
2018-08-24T19:09:55.650Z,4.47
2018-08-24T19:13:00.275Z,4.27
2018-08-24T19:16:04.159Z,5.40
2018-08-24T19:19:13.236Z,4.63
2018-08-24T19:22:17.086Z,3.80
2018-08-24T19:25:20.959Z,4.20
2018-08-24T19:28:29.740Z,4.37
2018-08-24T19:31:33.538Z,3.83
2018-08-24T19:34:37.568Z,4.33
2018-08-24T19:37:47.919Z,4.10
2018-08-24T19:40:56.696Z,3.63
2018-08-24T19:44:00.651Z,4.17
2018-08-24T19:47:07.844Z,4.17
2018-08-24T19:50:11.343Z,3.80
2018-08-24T19:53:15.005Z,4.03
2018-08-24T19:56:18.760Z,4.10
2018-08-24T19:59:22.363Z,3.67
2018-08-24T20:02:26.210Z,4.17
2018-08-24T20:05:30.282Z,3.73
2018-08-24T20:08:39.335Z,4.17
2018-08-24T20:11:43.603Z,4.30
2018-08-24T20:14:52.869Z,4.33
2018-08-24T20:17:56.386Z,4.30
2018-08-24T20:21:00.205Z,3.93
2018-08-24T20:24:03.742Z,4.90
2018-08-24T20:27:07.408Z,5.73
2018-08-24T20:30:11.516Z,8.43
2018-08-24T20:33:15.634Z,4.90
2018-08-24T20:36:19.271Z,4.20
2018-08-24T20:39:22.771Z,3.93
2018-08-24T20:42:26.507Z,4.47
2018-08-24T20:45:29.937Z,4.40
2018-08-24T20:48:33.547Z,4.20
2018-08-24T20:51:37.130Z,4.37
2018-08-24T20:54:40.703Z,4.20
2018-08-24T20:57:44.860Z,4.10
2018-08-24T21:00:48.443Z,4.17
2018-08-24T21:03:52.220Z,4.33
2018-08-24T21:06:55.698Z,3.90
2018-08-24T21:09:59.261Z,4.37
2018-08-24T21:13:03.094Z,6.23
2018-08-24T21:16:06.858Z,6.50
2018-08-24T21:19:10.539Z,6.57
2018-08-24T21:22:14.201Z,9.23
2018-08-24T21:25:17.712Z,9.90
2018-08-24T21:28:21.218Z,6.93
2018-08-24T21:31:24.680Z,3.93
2018-08-24T21:34:30.877Z,4.57
2018-08-24T21:37:34.618Z,4.20
2018-08-24T21:40:38.005Z,4.10
2018-08-24T21:43:41.616Z,5.20
2018-08-24T21:46:45.401Z,4.10
2018-08-24T21:49:48.792Z,4.07
2018-08-24T21:52:52.266Z,4.07
2018-08-24T21:55:55.647Z,3.73
2018-08-24T21:58:59.342Z,3.63
2018-08-24T22:02:02.879Z,3.37
2018-08-24T22:05:06.197Z,3.83
2018-08-24T22:08:09.763Z,3.37
2018-08-24T22:11:13.057Z,13.43
2018-08-24T22:14:16.403Z,12.47
2018-08-24T22:17:19.764Z,5.40
2018-08-24T22:20:23.092Z,3.80
2018-08-24T22:23:26.393Z,3.70
2018-08-24T22:26:29.729Z,3.43
2018-08-24T22:29:33.045Z,3.67
2018-08-24T22:32:36.334Z,3.40
2018-08-24T22:35:39.699Z,3.53
2018-08-24T22:38:42.945Z,2.93
2018-08-24T22:41:46.228Z,3.10
2018-08-24T22:44:49.580Z,3.80
2018-08-24T22:47:53.534Z,3.33
2018-08-24T22:50:58.443Z,3.10
2018-08-24T22:54:01.731Z,3.03
2018-08-24T22:57:05.189Z,3.07
2018-08-24T23:00:08.564Z,3.53
2018-08-24T23:03:12.070Z,4.47
2018-08-24T23:06:15.477Z,2.93
2018-08-24T23:09:18.888Z,2.87
2018-08-24T23:12:22.159Z,2.60
2018-08-24T23:15:26.154Z,39.07
2018-08-24T23:18:29.479Z,7.87
2018-08-24T23:21:32.809Z,18.03
2018-08-24T23:24:36.268Z,4.80
2018-08-24T23:27:39.599Z,3.73
2018-08-24T23:30:42.976Z,6.63
2018-08-24T23:33:46.439Z,6.90
2018-08-24T23:36:49.679Z,5.53
2018-08-24T23:39:52.897Z,12.10
2018-08-24T23:42:56.171Z,3.10
2018-08-24T23:45:59.574Z,3.70
2018-08-24T23:49:03.003Z,3.13
2018-08-24T23:52:06.275Z,3.73
2018-08-24T23:55:09.695Z,3.73
2018-08-24T23:58:12.960Z,3.57
